Time;durP1;ratioP1;P1;durP2;ratioP2;P2;SDS_P1;SDS_P2;PMS_P1;PMS_P2;Temp;Humidity;BMP_temperature;BMP_pressure;BME280_temperature;BME280_humidity;BME280_pressure;Samples;Min_cycle;Max_cycle;Signal;HPM_P1;HPM_P2
2021/04/23 00:00:54;;;;;;;4.95;2.33;;;;;;;22.29;38.34;98713.14;117009;1212;22892;-61
2021/04/23 00:03:29;;;;;;;6.10;2.90;;;;;;;22.29;38.46;98707.66;116940;1212;22845;-61
2021/04/23 00:06:03;;;;;;;3.80;2.40;;;;;;;22.29;38.46;98702.95;116910;1216;22960;-61
2021/04/23 00:08:29;;;;;;;4.98;2.30;;;;;;;22.29;38.58;98711.19;116844;1216;22949;-61
2021/04/23 00:10:55;;;;;;;5.13;2.33;;;;;;;22.29;38.52;98711.19;116785;1216;23705;-61
2021/04/23 00:13:21;;;;;;;5.05;2.60;;;;;;;22.30;38.52;98718.23;116831;1212;23013;-61
2021/04/23 00:15:47;;;;;;;4.00;2.30;;;;;;;22.30;38.48;98717.45;117006;1212;22943;-61
2021/04/23 00:18:13;;;;;;;4.93;2.30;;;;;;;22.31;38.51;98721.77;116923;1212;22958;-62
2021/04/23 00:20:39;;;;;;;4.95;2.45;;;;;;;22.32;38.54;98719.80;117024;1212;23828;-61
2021/04/23 00:23:06;;;;;;;5.70;2.50;;;;;;;22.32;38.48;98722.55;115738;1215;23137;-61
2021/04/23 00:25:32;;;;;;;5.78;2.48;;;;;;;22.32;38.39;98717.06;116887;1212;23933;-61
2021/04/23 00:28:00;;;;;;;4.60;2.53;;;;;;;22.32;38.44;98722.55;116948;1212;22857;-61
2021/04/23 00:30:28;;;;;;;4.10;2.20;;;;;;;22.32;38.34;98717.06;116954;1212;22909;-61
2021/04/23 00:32:54;;;;;;;2.98;2.20;;;;;;;22.30;38.44;98712.75;116993;1212;22901;-61
2021/04/23 00:35:26;;;;;;;3.67;2.20;;;;;;;22.30;38.34;98720.98;116928;1212;22849;-61
2021/04/23 00:37:52;;;;;;;5.43;2.45;;;;;;;22.31;38.37;98721.77;116205;1215;23137;-60
2021/04/23 00:40:23;;;;;;;4.17;2.43;;;;;;;22.29;38.28;98724.90;115291;1215;23137;-60
2021/04/23 00:42:49;;;;;;;3.20;2.10;;;;;;;22.28;38.29;98712.36;117011;1212;22867;-61
2021/04/23 00:45:18;;;;;;;4.50;2.27;;;;;;;22.26;38.27;98717.42;116892;1212;22964;-61
2021/04/23 00:47:46;;;;;;;5.70;2.63;;;;;;;22.26;38.39;98714.67;116974;1216;23647;-61
2021/04/23 00:50:13;;;;;;;4.30;2.18;;;;;;;22.26;38.44;98709.19;117025;1212;22902;-61
2021/04/23 00:52:39;;;;;;;4.05;2.50;;;;;;;22.25;38.49;98706.84;115438;1213;23146;-60
2021/04/23 00:55:06;;;;;;;3.35;2.13;;;;;;;22.23;38.30;98723.66;116007;1215;23156;-61
2021/04/23 00:57:32;;;;;;;4.48;2.28;;;;;;;22.21;38.36;98723.27;116969;1212;22855;-61
2021/04/23 00:59:58;;;;;;;3.65;2.28;;;;;;;22.20;38.31;98727.15;116965;1212;23682;-61
2021/04/23 01:02:23;;;;;;;3.38;2.15;;;;;;;22.21;38.46;98725.22;116991;1212;22894;-61
2021/04/23 01:04:49;;;;;;;3.70;2.20;;;;;;;22.21;38.36;98722.48;116906;1215;22831;-61
2021/04/23 01:07:15;;;;;;;3.77;2.40;;;;;;;22.20;38.39;98715.39;116956;1212;22835;-61
2021/04/23 01:09:41;;;;;;;3.40;2.18;;;;;;;22.19;38.31;98722.84;116997;1212;23685;-61
2021/04/23 01:12:08;;;;;;;3.73;2.28;;;;;;;22.20;38.42;98731.84;115872;1215;23143;-61
2021/04/23 01:14:34;;;;;;;3.60;2.10;;;;;;;22.19;38.32;98727.54;116990;1212;22856;-61
2021/04/23 01:17:00;;;;;;;4.98;2.23;;;;;;;22.18;38.36;98728.71;116830;1212;23798;-61
2021/04/23 01:19:26;;;;;;;3.30;2.10;;;;;;;22.17;38.29;98729.88;115308;1215;23137;-61
2021/04/23 01:21:52;;;;;;;2.90;2.20;;;;;;;22.15;38.29;98727.50;116944;1216;22905;-61
2021/04/23 01:24:19;;;;;;;3.40;2.20;;;;;;;22.14;38.33;98736.13;116937;1212;22917;-61
2021/04/23 01:26:47;;;;;;;3.70;2.23;;;;;;;22.14;38.27;98725.15;116325;1215;23133;-61
2021/04/23 01:29:14;;;;;;;3.63;2.05;;;;;;;22.12;38.43;98728.22;116999;1212;22896;-61
2021/04/23 01:31:42;;;;;;;3.33;2.00;;;;;;;22.12;38.36;98728.22;116964;1215;22965;-62
2021/04/23 01:34:14;;;;;;;4.03;2.23;;;;;;;22.12;38.35;98738.41;116930;1216;22832;-61
2021/04/23 01:43:25;;;;;;;3.07;2.20;;;;;;;22.05;38.34;98725.44;115465;1212;23161;-60
2021/04/23 01:45:51;;;;;;;3.85;2.13;;;;;;;22.01;38.38;98730.88;115282;1215;23156;-59
2021/04/23 01:48:17;;;;;;;4.35;2.40;;;;;;;21.99;38.17;98727.71;115262;1212;23168;-60
2021/04/23 01:50:43;;;;;;;3.55;2.05;;;;;;;21.97;38.16;98729.27;115923;1212;23137;-60
2021/04/23 01:53:09;;;;;;;4.13;2.23;;;;;;;21.94;38.17;98727.28;115263;1215;23156;-60
2021/04/23 01:55:35;;;;;;;2.70;2.08;;;;;;;21.92;38.31;98724.89;116753;1212;22951;-61
2021/04/23 01:58:02;;;;;;;2.77;2.10;;;;;;;21.90;38.35;98734.68;115602;1216;23178;-60
2021/04/23 02:00:33;;;;;;;3.95;2.10;;;;;;;21.87;38.36;98722.50;116984;1212;22915;-61
2021/04/23 02:03:00;;;;;;;2.35;1.90;;;;;;;21.87;38.39;98730.72;116978;1212;22913;-62
2021/04/23 02:05:26;;;;;;;4.67;2.30;;;;;;;21.88;38.53;98734.25;116924;1212;22926;-61
2021/04/23 02:07:53;;;;;;;2.25;2.00;;;;;;;21.86;38.31;98729.16;117009;1212;22854;-61
2021/04/23 02:10:21;;;;;;;2.93;2.10;;;;;;;21.87;38.42;98736.20;116115;1212;23137;-60
2021/04/23 02:16:10;;;;;;;3.75;2.20;;;;;;;21.83;38.24;98729.90;115280;1213;23137;-60
2021/04/23 02:18:36;;;;;;;3.13;2.20;;;;;;;21.81;38.31;98730.28;115301;1213;23134;-60
2021/04/23 02:21:04;;;;;;;4.40;2.20;;;;;;;21.80;38.37;98730.64;116841;1212;22943;-60
2021/04/23 02:23:30;;;;;;;3.40;1.95;;;;;;;21.79;38.36;98729.86;116901;1212;22825;-61
2021/04/23 02:25:59;;;;;;;3.57;2.07;;;;;;;21.79;38.39;98723.59;116941;1212;22957;-61
2021/04/23 02:28:25;;;;;;;3.30;2.10;;;;;;;21.79;38.45;98727.11;116930;1216;22879;-61
2021/04/23 02:31:07;;;;;;;3.87;2.17;;;;;;;21.79;38.42;98732.59;117008;1212;23111;-61
2021/04/23 02:33:32;;;;;;;3.30;2.20;;;;;;;21.79;38.44;98731.81;115622;1216;23160;-61
2021/04/23 02:35:58;;;;;;;3.30;2.17;;;;;;;21.78;38.39;98743.95;116044;1212;23964;-60
2021/04/23 02:38:28;;;;;;;2.63;1.98;;;;;;;21.76;38.47;98741.56;116961;1216;22933;-61
2021/04/23 02:40:54;;;;;;;2.30;2.00;;;;;;;21.77;38.45;98751.39;116970;1212;22905;-61
2021/04/23 02:43:22;;;;;;;3.45;2.50;;;;;;;21.77;38.46;98754.13;116565;1215;23146;-61
2021/04/23 02:45:48;;;;;;;3.38;2.00;;;;;;;21.77;38.38;98745.09;116988;1212;22936;-61
2021/04/23 02:48:14;;;;;;;2.35;1.90;;;;;;;21.78;38.52;98749.44;116856;1212;23260;-61
2021/04/23 02:50:45;;;;;;;3.43;1.88;;;;;;;21.78;38.51;98743.95;116996;1212;22988;-61
2021/04/23 02:53:11;;;;;;;3.28;2.15;;;;;;;21.79;38.38;98748.27;116930;1212;22903;-61
2021/04/23 02:55:37;;;;;;;3.07;2.03;;;;;;;21.77;38.47;98745.91;116986;1212;23528;-61
2021/04/23 02:58:11;;;;;;;2.65;1.98;;;;;;;21.78;38.43;98746.69;116950;1212;22929;-61
2021/04/23 03:00:40;;;;;;;3.08;2.38;;;;;;;21.78;38.25;98744.73;116980;1212;24039;-61
2021/04/23 03:03:06;;;;;;;3.50;2.18;;;;;;;21.77;38.30;98737.68;117039;1212;22979;-61
2021/04/23 03:05:33;;;;;;;2.90;2.00;;;;;;;21.78;38.28;98736.52;116871;1216;22986;-61
2021/04/23 03:07:59;;;;;;;2.75;1.80;;;;;;;21.78;38.25;98736.52;117004;1210;23729;-61
2021/04/23 03:10:27;;;;;;;3.13;2.07;;;;;;;21.78;38.21;98744.73;116936;1212;22926;-61
2021/04/23 03:12:53;;;;;;;3.00;2.00;;;;;;;21.79;38.17;98742.78;116810;1212;22934;-62
2021/04/23 03:15:24;;;;;;;3.05;1.83;;;;;;;21.78;38.31;98752.95;116961;1216;23818;-61
2021/04/23 03:17:51;;;;;;;3.55;2.03;;;;;;;21.78;38.30;98746.69;117023;1212;22953;-61
2021/04/23 03:20:18;;;;;;;2.67;1.93;;;;;;;21.79;38.28;98742.78;116972;1212;22921;-61
2021/04/23 03:22:44;;;;;;;4.33;2.33;;;;;;;21.79;38.37;98753.74;116899;1212;22916;-61
2021/04/23 03:25:11;;;;;;;3.80;2.28;;;;;;;21.79;38.07;98745.52;117023;1212;22972;-61
2021/04/23 03:27:37;;;;;;;3.98;2.15;;;;;;;21.78;38.16;98754.91;115670;1216;23141;-60
2021/04/23 03:30:05;;;;;;;3.10;2.08;;;;;;;21.76;38.04;98758.02;115310;1216;23185;-60
2021/04/23 03:32:31;;;;;;;3.10;2.00;;;;;;;21.73;38.01;98745.08;115384;1215;23161;-60
2021/04/23 03:34:57;;;;;;;2.45;1.90;;;;;;;21.71;37.98;98761.09;115320;1215;23137;-60
2021/04/23 03:37:23;;;;;;;3.23;2.20;;;;;;;21.67;37.95;98757.52;115311;1215;23160;-60
2021/04/23 03:39:49;;;;;;;2.43;1.88;;;;;;;21.66;38.08;98757.91;117005;1212;22860;-61
2021/04/23 03:42:15;;;;;;;2.60;2.08;;;;;;;21.65;38.13;98767.27;116866;1215;22927;-61
2021/04/23 03:44:41;;;;;;;4.80;1.88;;;;;;;21.63;37.86;98764.91;115968;1212;23176;-60
2021/04/23 03:47:07;;;;;;;4.03;2.63;;;;;;;21.61;37.99;98763.70;115268;1215;23147;-60
2021/04/23 03:49:32;;;;;;;2.68;1.90;;;;;;;21.58;38.05;98769.95;115328;1212;23137;-60
2021/04/23 03:51:59;;;;;;;2.40;2.20;;;;;;;21.55;37.95;98766.78;115286;1215;23161;-61
2021/04/23 03:54:24;;;;;;;3.45;2.00;;;;;;;21.53;38.12;98776.52;115348;1214;23160;-60
2021/04/23 03:56:50;;;;;;;3.85;2.20;;;;;;;21.51;38.18;98778.86;115330;1215;23137;-60
2021/04/23 03:59:17;;;;;;;4.05;2.20;;;;;;;21.49;38.18;98789.39;115374;1215;23140;-61
2021/04/23 04:01:43;;;;;;;3.30;2.27;;;;;;;21.46;38.25;98779.20;116912;1216;22998;-61
2021/04/23 04:04:09;;;;;;;4.05;2.53;;;;;;;21.45;38.29;98786.59;116557;1212;22936;-60
2021/04/23 04:06:35;;;;;;;2.55;2.10;;;;;;;21.45;38.39;98794.81;116923;1212;22937;-61
2021/04/23 04:09:01;;;;;;;2.75;2.00;;;;;;;21.45;38.45;98802.25;117009;1211;22933;-61
2021/04/23 04:11:26;;;;;;;3.18;2.20;;;;;;;21.45;38.50;98808.52;116989;1212;22859;-61
2021/04/23 04:13:52;;;;;;;4.00;2.20;;;;;;;21.45;38.89;98810.47;116967;1216;22971;-61
2021/04/23 04:16:18;;;;;;;2.93;1.90;;;;;;;21.46;38.46;98812.86;116918;1216;22925;-61
2021/04/23 04:18:44;;;;;;;3.58;2.30;;;;;;;21.47;38.41;98821.86;116972;1212;24052;-61
2021/04/23 04:21:10;;;;;;;2.18;1.98;;;;;;;21.48;38.52;98818.74;116930;1212;24019;-61
2021/04/23 04:23:36;;;;;;;2.50;2.10;;;;;;;21.49;38.50;98825.80;116222;1216;23137;-61
2021/04/23 04:26:02;;;;;;;3.00;1.93;;;;;;;21.49;38.24;98822.27;115357;1215;23137;-60
2021/04/23 04:28:29;;;;;;;5.13;2.18;;;;;;;21.47;38.29;98828.13;115365;1212;26037;-60
2021/04/23 04:30:55;;;;;;;3.70;2.10;;;;;;;21.46;38.22;98832.03;116893;1212;23639;-61
2021/04/23 04:33:21;;;;;;;3.30;2.30;;;;;;;21.46;38.32;98836.73;116806;1212;22992;-61
2021/04/23 04:35:47;;;;;;;2.80;1.88;;;;;;;21.47;38.40;98841.04;115973;1215;23144;-60
2021/04/23 04:38:13;;;;;;;4.45;2.18;;;;;;;21.45;38.43;98846.88;115339;1212;23146;-60
2021/04/23 04:40:39;;;;;;;3.18;2.23;;;;;;;21.44;38.25;98842.56;116976;1212;22929;-62
2021/04/23 04:43:06;;;;;;;3.95;2.13;;;;;;;21.45;38.25;98857.83;116847;1212;22893;-61
2021/04/23 04:45:33;;;;;;;3.20;2.00;;;;;;;21.45;38.33;98852.35;116864;1212;22901;-61
2021/04/23 04:47:58;;;;;;;3.30;2.00;;;;;;;21.46;38.40;98853.95;117009;1212;23799;-61
2021/04/23 04:50:34;;;;;;;2.30;1.95;;;;;;;21.46;38.38;98856.70;116952;1212;22925;-61
2021/04/23 04:53:00;;;;;;;2.48;2.00;;;;;;;21.47;38.35;98862.96;116982;1212;22847;-62
2021/04/23 04:55:28;;;;;;;3.50;2.13;;;;;;;21.48;38.35;98875.49;116803;1212;23774;-61
2021/04/23 04:57:55;;;;;;;3.70;2.17;;;;;;;21.48;38.34;98876.28;116951;1216;22831;-61
2021/04/23 05:00:21;;;;;;;4.00;2.20;;;;;;;21.50;38.40;98875.92;116994;1212;22940;-61
2021/04/23 05:02:47;;;;;;;4.23;2.25;;;;;;;21.51;38.31;98872.80;116946;1212;22915;-61
2021/04/23 05:05:14;;;;;;;4.47;2.20;;;;;;;21.53;38.23;98877.91;116394;1212;25896;-60
2021/04/23 05:07:40;;;;;;;2.90;2.10;;;;;;;21.55;38.15;98892.04;116746;1212;23006;-61
2021/04/23 05:10:07;;;;;;;3.55;2.10;;;;;;;21.56;38.27;98888.13;116933;1216;22956;-61
2021/04/23 05:12:34;;;;;;;3.83;1.98;;;;;;;21.58;38.25;98888.56;116899;1212;23724;-61
2021/04/23 05:15:00;;;;;;;2.75;2.10;;;;;;;21.60;38.32;98888.97;116821;1212;23884;-61
2021/04/23 05:17:26;;;;;;;3.67;2.53;;;;;;;21.61;38.22;98890.55;115279;1212;23134;-60
2021/04/23 05:19:52;;;;;;;2.57;1.97;;;;;;;21.62;38.11;98894.10;115374;1212;23164;-60
2021/04/23 05:22:18;;;;;;;2.50;1.87;;;;;;;21.61;38.03;98898.77;115358;1216;26197;-60
2021/04/23 05:24:44;;;;;;;4.20;2.27;;;;;;;21.62;38.06;98900.37;115272;1215;23159;-60
2021/04/23 05:27:10;;;;;;;3.05;2.30;;;;;;;21.62;38.00;98902.33;115301;1215;23161;-60
2021/04/23 05:29:36;;;;;;;6.28;2.18;;;;;;;21.62;38.12;98903.11;116833;1212;22931;-62
2021/04/23 05:32:02;;;;;;;4.50;2.10;;;;;;;21.63;38.11;98895.67;116920;1216;22877;-60
2021/04/23 05:34:29;;;;;;;4.98;2.10;;;;;;;21.65;38.06;98907.04;116863;1215;22970;-60
2021/04/23 05:36:55;;;;;;;6.60;2.18;;;;;;;21.67;37.93;98907.48;117077;1212;24077;-59
2021/04/23 05:39:21;;;;;;;3.90;2.47;;;;;;;21.69;37.94;98908.70;116941;1212;23668;-58
2021/04/23 05:41:46;;;;;;;5.87;2.30;;;;;;;21.70;37.95;98902.05;117000;1212;22863;-58
2021/04/23 05:44:12;;;;;;;3.23;2.00;;;;;;;21.73;38.17;98901.31;116936;1216;23534;-62
2021/04/23 05:46:38;;;;;;;6.48;2.30;;;;;;;21.77;38.16;98901.34;116961;1212;23601;-63
2021/04/23 05:49:05;;;;;;;6.00;2.07;;;;;;;21.80;38.12;98903.34;116911;1212;23845;-62
2021/04/23 06:10:47;;;;;;;10.75;3.58;;;;;;;13.65;31.23;98894.37;115989;1178;31399;-78
2021/04/23 06:13:13;;;;;;;10.80;3.70;;;;;;;12.88;31.41;98899.19;115836;1212;23829;-76
2021/04/23 06:15:41;;;;;;;10.48;3.50;;;;;;;12.36;32.29;98906.22;115388;1177;36514;-77
2021/04/23 06:18:07;;;;;;;11.20;3.45;;;;;;;11.96;33.40;98909.57;115485;1212;23180;-77
2021/04/23 06:20:33;;;;;;;9.15;3.25;;;;;;;11.64;33.92;98912.43;115322;1215;39398;-78
2021/04/23 06:23:00;;;;;;;7.60;3.50;;;;;;;11.33;34.04;98918.45;115522;1212;23134;-77
2021/04/23 06:25:26;;;;;;;8.28;3.35;;;;;;;11.11;34.79;98921.05;115508;1176;32948;-78
2021/04/23 06:27:52;;;;;;;9.43;3.70;;;;;;;10.96;35.01;98920.22;115543;1212;23134;-78
2021/04/23 06:30:21;;;;;;;10.60;4.10;;;;;;;10.85;34.87;98921.53;115475;1212;23135;-79
2021/04/23 06:32:47;;;;;;;10.07;3.47;;;;;;;10.76;35.38;98923.30;115360;1177;85319;-79
